sensor_id;sensor_type;location;lat;lon;timestamp;P1;durP1;ratioP1;P2;durP2;ratioP2
18102;SDS011;9178;51.120;6.192;2023-02-01T00:02:12;14.07;;;7.20;;
18102;SDS011;9178;51.120;6.192;2023-02-01T00:04:39;15.73;;;5.93;;
18102;SDS011;9178;51.120;6.192;2023-02-01T00:07:06;19.77;;;5.00;;
18102;SDS011;9178;51.120;6.192;2023-02-01T00:09:33;13.77;;;5.40;;
18102;SDS011;9178;51.120;6.192;2023-02-01T00:12:00;17.23;;;5.37;;
18102;SDS011;9178;51.120;6.192;2023-02-01T00:14:28;13.37;;;5.00;;
18102;SDS011;9178;51.120;6.192;2023-02-01T00:16:55;13.90;;;4.33;;
18102;SDS011;9178;51.120;6.192;2023-02-01T00:19:23;14.13;;;4.10;;
18102;SDS011;9178;51.120;6.192;2023-02-01T00:21:50;13.43;;;4.00;;
18102;SDS011;9178;51.120;6.192;2023-02-01T00:24:17;8.70;;;3.70;;
18102;SDS011;9178;51.120;6.192;2023-02-01T00:26:44;17.53;;;4.47;;
18102;SDS011;9178;51.120;6.192;2023-02-01T00:29:12;14.00;;;3.70;;
18102;SDS011;9178;51.120;6.192;2023-02-01T00:31:41;10.77;;;3.30;;
18102;SDS011;9178;51.120;6.192;2023-02-01T00:34:09;14.57;;;4.43;;
18102;SDS011;9178;51.120;6.192;2023-02-01T00:36:39;12.33;;;3.57;;
18102;SDS011;9178;51.120;6.192;2023-02-01T00:39:07;15.80;;;4.03;;
18102;SDS011;9178;51.120;6.192;2023-02-01T00:41:34;11.57;;;3.63;;
18102;SDS011;9178;51.120;6.192;2023-02-01T00:44:01;16.70;;;4.10;;
18102;SDS011;9178;51.120;6.192;2023-02-01T00:46:29;18.60;;;4.10;;
18102;SDS011;9178;51.120;6.192;2023-02-01T00:48:56;17.03;;;3.70;;
18102;SDS011;9178;51.120;6.192;2023-02-01T00:51:24;11.93;;;3.80;;
18102;SDS011;9178;51.120;6.192;2023-02-01T00:53:53;10.27;;;3.27;;
18102;SDS011;9178;51.120;6.192;2023-02-01T00:56:20;15.67;;;3.50;;
18102;SDS011;9178;51.120;6.192;2023-02-01T00:58:48;11.03;;;3.27;;
18102;SDS011;9178;51.120;6.192;2023-02-01T01:01:15;10.67;;;3.43;;
18102;SDS011;9178;51.120;6.192;2023-02-01T01:03:45;20.43;;;3.23;;
18102;SDS011;9178;51.120;6.192;2023-02-01T01:06:13;14.03;;;3.53;;
18102;SDS011;9178;51.120;6.192;2023-02-01T01:08:42;13.90;;;3.07;;
18102;SDS011;9178;51.120;6.192;2023-02-01T01:11:12;12.43;;;3.10;;
18102;SDS011;9178;51.120;6.192;2023-02-01T01:13:40;11.63;;;3.30;;
18102;SDS011;9178;51.120;6.192;2023-02-01T01:16:07;9.97;;;2.90;;
18102;SDS011;9178;51.120;6.192;2023-02-01T01:18:36;10.53;;;3.33;;
18102;SDS011;9178;51.120;6.192;2023-02-01T01:21:04;14.07;;;3.70;;
18102;SDS011;9178;51.120;6.192;2023-02-01T01:23:31;13.77;;;3.70;;
18102;SDS011;9178;51.120;6.192;2023-02-01T01:25:59;15.73;;;3.83;;
18102;SDS011;9178;51.120;6.192;2023-02-01T01:28:27;17.63;;;3.63;;
18102;SDS011;9178;51.120;6.192;2023-02-01T01:30:54;13.10;;;3.73;;
18102;SDS011;9178;51.120;6.192;2023-02-01T01:33:21;11.17;;;3.70;;
18102;SDS011;9178;51.120;6.192;2023-02-01T01:35:48;22.93;;;3.93;;
18102;SDS011;9178;51.120;6.192;2023-02-01T01:38:15;13.73;;;3.57;;
18102;SDS011;9178;51.120;6.192;2023-02-01T01:40:44;13.53;;;3.57;;
18102;SDS011;9178;51.120;6.192;2023-02-01T01:43:13;11.87;;;3.60;;
18102;SDS011;9178;51.120;6.192;2023-02-01T01:45:42;12.80;;;3.57;;
18102;SDS011;9178;51.120;6.192;2023-02-01T01:48:11;16.83;;;4.60;;
18102;SDS011;9178;51.120;6.192;2023-02-01T01:50:41;11.57;;;3.67;;
18102;SDS011;9178;51.120;6.192;2023-02-01T01:53:13;9.77;;;4.03;;
18102;SDS011;9178;51.120;6.192;2023-02-01T01:55:43;10.40;;;3.70;;
18102;SDS011;9178;51.120;6.192;2023-02-01T01:58:13;10.67;;;3.43;;
18102;SDS011;9178;51.120;6.192;2023-02-01T02:00:44;12.63;;;3.13;;
18102;SDS011;9178;51.120;6.192;2023-02-01T02:03:15;15.60;;;3.70;;
18102;SDS011;9178;51.120;6.192;2023-02-01T02:05:44;10.07;;;3.57;;
18102;SDS011;9178;51.120;6.192;2023-02-01T02:08:12;18.40;;;4.07;;
18102;SDS011;9178;51.120;6.192;2023-02-01T02:10:39;12.73;;;3.67;;
18102;SDS011;9178;51.120;6.192;2023-02-01T02:13:24;15.77;;;3.47;;
18102;SDS011;9178;51.120;6.192;2023-02-01T02:15:55;10.37;;;3.93;;
18102;SDS011;9178;51.120;6.192;2023-02-01T02:18:34;12.63;;;3.30;;
18102;SDS011;9178;51.120;6.192;2023-02-01T02:21:16;12.90;;;3.63;;
18102;SDS011;9178;51.120;6.192;2023-02-01T02:24:03;13.07;;;3.70;;
18102;SDS011;9178;51.120;6.192;2023-02-01T02:26:58;9.63;;;3.83;;
18102;SDS011;9178;51.120;6.192;2023-02-01T02:29:36;13.80;;;3.87;;
18102;SDS011;9178;51.120;6.192;2023-02-01T02:35:29;16.00;;;4.03;;
18102;SDS011;9178;51.120;6.192;2023-02-01T02:38:02;12.60;;;3.73;;
18102;SDS011;9178;51.120;6.192;2023-02-01T02:40:41;15.13;;;4.10;;
18102;SDS011;9178;51.120;6.192;2023-02-01T02:43:15;13.93;;;3.57;;
18102;SDS011;9178;51.120;6.192;2023-02-01T02:46:05;19.97;;;4.80;;
18102;SDS011;9178;51.120;6.192;2023-02-01T02:48:55;20.63;;;4.30;;
18102;SDS011;9178;51.120;6.192;2023-02-01T02:51:30;16.40;;;4.13;;
18102;SDS011;9178;51.120;6.192;2023-02-01T02:54:19;15.20;;;4.67;;
18102;SDS011;9178;51.120;6.192;2023-02-01T02:57:03;12.60;;;4.10;;
18102;SDS011;9178;51.120;6.192;2023-02-01T02:59:50;17.87;;;4.90;;
18102;SDS011;9178;51.120;6.192;2023-02-01T03:02:37;13.70;;;4.10;;
18102;SDS011;9178;51.120;6.192;2023-02-01T03:05:22;13.43;;;3.87;;
18102;SDS011;9178;51.120;6.192;2023-02-01T03:08:03;17.43;;;4.70;;
18102;SDS011;9178;51.120;6.192;2023-02-01T03:10:33;16.03;;;4.23;;
18102;SDS011;9178;51.120;6.192;2023-02-01T03:13:08;15.77;;;4.17;;
18102;SDS011;9178;51.120;6.192;2023-02-01T03:15:38;17.63;;;4.43;;
18102;SDS011;9178;51.120;6.192;2023-02-01T03:18:11;12.30;;;3.87;;
18102;SDS011;9178;51.120;6.192;2023-02-01T03:20:44;13.57;;;3.87;;
18102;SDS011;9178;51.120;6.192;2023-02-01T03:23:15;13.70;;;3.57;;
18102;SDS011;9178;51.120;6.192;2023-02-01T03:25:46;16.90;;;3.80;;
18102;SDS011;9178;51.120;6.192;2023-02-01T03:28:16;16.70;;;4.03;;
18102;SDS011;9178;51.120;6.192;2023-02-01T03:30:48;16.33;;;3.83;;
18102;SDS011;9178;51.120;6.192;2023-02-01T03:33:16;18.07;;;3.60;;
18102;SDS011;9178;51.120;6.192;2023-02-01T03:35:50;16.63;;;4.03;;
18102;SDS011;9178;51.120;6.192;2023-02-01T03:38:26;15.70;;;4.07;;
18102;SDS011;9178;51.120;6.192;2023-02-01T03:40:58;14.43;;;3.27;;
18102;SDS011;9178;51.120;6.192;2023-02-01T03:43:32;15.67;;;3.93;;
18102;SDS011;9178;51.120;6.192;2023-02-01T03:46:06;12.47;;;4.00;;
18102;SDS011;9178;51.120;6.192;2023-02-01T03:48:38;16.50;;;3.53;;
18102;SDS011;9178;51.120;6.192;2023-02-01T03:51:06;11.33;;;3.33;;
18102;SDS011;9178;51.120;6.192;2023-02-01T03:53:35;13.67;;;3.17;;
18102;SDS011;9178;51.120;6.192;2023-02-01T03:56:04;15.13;;;3.50;;
18102;SDS011;9178;51.120;6.192;2023-02-01T03:58:32;18.67;;;3.73;;
18102;SDS011;9178;51.120;6.192;2023-02-01T04:01:00;15.90;;;3.37;;
18102;SDS011;9178;51.120;6.192;2023-02-01T04:03:27;11.20;;;3.40;;
18102;SDS011;9178;51.120;6.192;2023-02-01T04:05:55;17.57;;;3.63;;
18102;SDS011;9178;51.120;6.192;2023-02-01T04:08:22;12.70;;;3.60;;
18102;SDS011;9178;51.120;6.192;2023-02-01T04:10:51;10.73;;;3.30;;
18102;SDS011;9178;51.120;6.192;2023-02-01T04:13:18;16.00;;;3.53;;
18102;SDS011;9178;51.120;6.192;2023-02-01T04:15:46;12.73;;;3.40;;
18102;SDS011;9178;51.120;6.192;2023-02-01T04:18:14;14.03;;;4.07;;
18102;SDS011;9178;51.120;6.192;2023-02-01T04:20:42;16.37;;;3.27;;
18102;SDS011;9178;51.120;6.192;2023-02-01T04:23:09;14.17;;;3.23;;
18102;SDS011;9178;51.120;6.192;2023-02-01T04:25:36;15.97;;;3.30;;
18102;SDS011;9178;51.120;6.192;2023-02-01T04:28:04;14.83;;;3.10;;
18102;SDS011;9178;51.120;6.192;2023-02-01T04:30:31;13.43;;;3.10;;
18102;SDS011;9178;51.120;6.192;2023-02-01T04:32:58;15.93;;;4.17;;
18102;SDS011;9178;51.120;6.192;2023-02-01T04:35:25;17.60;;;3.70;;
18102;SDS011;9178;51.120;6.192;2023-02-01T04:37:52;18.13;;;3.97;;
18102;SDS011;9178;51.120;6.192;2023-02-01T04:40:19;14.17;;;3.40;;
18102;SDS011;9178;51.120;6.192;2023-02-01T04:42:50;14.97;;;3.50;;
18102;SDS011;9178;51.120;6.192;2023-02-01T04:45:18;15.70;;;2.90;;
18102;SDS011;9178;51.120;6.192;2023-02-01T04:47:45;16.10;;;3.47;;
18102;SDS011;9178;51.120;6.192;2023-02-01T04:50:13;11.43;;;3.20;;
18102;SDS011;9178;51.120;6.192;2023-02-01T04:52:40;14.37;;;3.20;;
18102;SDS011;9178;51.120;6.192;2023-02-01T04:55:08;16.27;;;3.73;;
18102;SDS011;9178;51.120;6.192;2023-02-01T04:57:35;13.87;;;3.43;;
18102;SDS011;9178;51.120;6.192;2023-02-01T05:00:04;17.37;;;3.40;;
18102;SDS011;9178;51.120;6.192;2023-02-01T05:02:33;15.43;;;3.57;;
18102;SDS011;9178;51.120;6.192;2023-02-01T05:05:01;23.50;;;3.67;;
18102;SDS011;9178;51.120;6.192;2023-02-01T05:07:27;12.10;;;3.13;;
18102;SDS011;9178;51.120;6.192;2023-02-01T05:09:54;14.17;;;3.30;;
18102;SDS011;9178;51.120;6.192;2023-02-01T05:12:21;11.90;;;2.87;;
18102;SDS011;9178;51.120;6.192;2023-02-01T05:15:06;14.03;;;3.07;;
18102;SDS011;9178;51.120;6.192;2023-02-01T05:17:35;13.83;;;2.97;;
18102;SDS011;9178;51.120;6.192;2023-02-01T05:20:02;14.00;;;2.90;;
18102;SDS011;9178;51.120;6.192;2023-02-01T05:22:30;10.73;;;2.90;;
18102;SDS011;9178;51.120;6.192;2023-02-01T05:24:57;20.47;;;3.97;;
18102;SDS011;9178;51.120;6.192;2023-02-01T05:27:24;6.57;;;2.63;;
18102;SDS011;9178;51.120;6.192;2023-02-01T05:29:51;14.03;;;3.00;;
18102;SDS011;9178;51.120;6.192;2023-02-01T05:32:18;11.40;;;2.80;;
18102;SDS011;9178;51.120;6.192;2023-02-01T05:34:48;15.37;;;3.10;;
18102;SDS011;9178;51.120;6.192;2023-02-01T05:37:15;14.23;;;3.20;;
18102;SDS011;9178;51.120;6.192;2023-02-01T05:39:42;13.00;;;3.20;;
18102;SDS011;9178;51.120;6.192;2023-02-01T05:42:09;13.90;;;3.00;;
18102;SDS011;9178;51.120;6.192;2023-02-01T05:44:36;16.00;;;3.10;;
18102;SDS011;9178;51.120;6.192;2023-02-01T05:47:03;18.83;;;3.20;;
18102;SDS011;9178;51.120;6.192;2023-02-01T05:49:30;11.73;;;2.83;;
18102;SDS011;9178;51.120;6.192;2023-02-01T05:51:58;23.23;;;4.27;;
18102;SDS011;9178;51.120;6.192;2023-02-01T05:54:25;14.43;;;2.60;;
18102;SDS011;9178;51.120;6.192;2023-02-01T05:56:52;15.90;;;3.40;;
18102;SDS011;9178;51.120;6.192;2023-02-01T05:59:19;12.77;;;2.77;;
18102;SDS011;9178;51.120;6.192;2023-02-01T06:01:46;12.50;;;2.90;;
18102;SDS011;9178;51.120;6.192;2023-02-01T06:04:13;14.63;;;3.60;;
18102;SDS011;9178;51.120;6.192;2023-02-01T06:06:40;16.40;;;2.63;;
18102;SDS011;9178;51.120;6.192;2023-02-01T06:09:08;19.47;;;3.03;;
18102;SDS011;9178;51.120;6.192;2023-02-01T06:11:35;12.67;;;3.43;;
18102;SDS011;9178;51.120;6.192;2023-02-01T06:14:02;15.47;;;4.00;;
18102;SDS011;9178;51.120;6.192;2023-02-01T06:16:29;20.53;;;3.43;;
18102;SDS011;9178;51.120;6.192;2023-02-01T06:18:56;15.87;;;3.13;;
18102;SDS011;9178;51.120;6.192;2023-02-01T06:21:23;17.43;;;3.03;;
18102;SDS011;9178;51.120;6.192;2023-02-01T06:23:50;11.10;;;3.00;;
18102;SDS011;9178;51.120;6.192;2023-02-01T06:26:18;17.83;;;3.53;;
18102;SDS011;9178;51.120;6.192;2023-02-01T06:28:45;16.20;;;3.00;;
18102;SDS011;9178;51.120;6.192;2023-02-01T06:31:12;13.63;;;3.17;;
18102;SDS011;9178;51.120;6.192;2023-02-01T06:33:39;18.63;;;3.30;;
18102;SDS011;9178;51.120;6.192;2023-02-01T06:36:07;14.90;;;3.33;;
18102;SDS011;9178;51.120;6.192;2023-02-01T06:38:37;14.07;;;3.17;;
18102;SDS011;9178;51.120;6.192;2023-02-01T06:41:04;18.03;;;3.50;;
18102;SDS011;9178;51.120;6.192;2023-02-01T06:43:32;16.60;;;3.43;;
18102;SDS011;9178;51.120;6.192;2023-02-01T06:45:59;15.50;;;2.93;;
18102;SDS011;9178;51.120;6.192;2023-02-01T06:48:27;15.20;;;2.90;;
18102;SDS011;9178;51.120;6.192;2023-02-01T06:50:54;19.90;;;3.50;;
18102;SDS011;9178;51.120;6.192;2023-02-01T06:53:21;14.93;;;3.80;;
18102;SDS011;9178;51.120;6.192;2023-02-01T06:55:52;12.33;;;3.20;;
18102;SDS011;9178;51.120;6.192;2023-02-01T06:58:19;14.30;;;3.37;;
18102;SDS011;9178;51.120;6.192;2023-02-01T07:00:47;17.50;;;3.53;;
18102;SDS011;9178;51.120;6.192;2023-02-01T07:03:15;14.33;;;3.17;;
18102;SDS011;9178;51.120;6.192;2023-02-01T07:05:43;17.63;;;3.07;;
18102;SDS011;9178;51.120;6.192;2023-02-01T07:08:09;18.53;;;4.17;;
18102;SDS011;9178;51.120;6.192;2023-02-01T07:10:36;15.07;;;3.37;;
18102;SDS011;9178;51.120;6.192;2023-02-01T07:13:04;13.53;;;3.47;;
18102;SDS011;9178;51.120;6.192;2023-02-01T07:15:31;12.93;;;3.43;;
18102;SDS011;9178;51.120;6.192;2023-02-01T07:17:59;17.60;;;4.27;;
18102;SDS011;9178;51.120;6.192;2023-02-01T07:20:26;19.43;;;3.60;;
18102;SDS011;9178;51.120;6.192;2023-02-01T07:22:54;18.53;;;3.63;;
18102;SDS011;9178;51.120;6.192;2023-02-01T07:25:22;16.30;;;3.33;;
18102;SDS011;9178;51.120;6.192;2023-02-01T07:27:49;16.13;;;3.40;;
18102;SDS011;9178;51.120;6.192;2023-02-01T07:30:16;18.13;;;3.83;;
18102;SDS011;9178;51.120;6.192;2023-02-01T07:32:44;19.53;;;3.87;;
18102;SDS011;9178;51.120;6.192;2023-02-01T07:35:12;18.73;;;3.10;;
18102;SDS011;9178;51.120;6.192;2023-02-01T07:37:39;13.43;;;3.63;;
18102;SDS011;9178;51.120;6.192;2023-02-01T07:40:07;11.90;;;3.07;;
18102;SDS011;9178;51.120;6.192;2023-02-01T07:42:35;17.37;;;3.37;;
18102;SDS011;9178;51.120;6.192;2023-02-01T07:45:01;13.97;;;3.30;;
18102;SDS011;9178;51.120;6.192;2023-02-01T07:47:29;13.37;;;3.20;;
18102;SDS011;9178;51.120;6.192;2023-02-01T07:49:55;12.40;;;3.13;;
18102;SDS011;9178;51.120;6.192;2023-02-01T07:52:24;16.13;;;3.30;;
18102;SDS011;9178;51.120;6.192;2023-02-01T07:54:54;12.77;;;3.57;;
18102;SDS011;9178;51.120;6.192;2023-02-01T07:57:21;12.97;;;3.23;;
18102;SDS011;9178;51.120;6.192;2023-02-01T07:59:48;12.87;;;3.40;;
18102;SDS011;9178;51.120;6.192;2023-02-01T08:02:33;11.43;;;3.13;;
18102;SDS011;9178;51.120;6.192;2023-02-01T08:04:59;17.20;;;3.20;;
18102;SDS011;9178;51.120;6.192;2023-02-01T08:07:28;14.10;;;3.30;;
18102;SDS011;9178;51.120;6.192;2023-02-01T08:09:55;11.17;;;3.07;;
18102;SDS011;9178;51.120;6.192;2023-02-01T08:12:21;20.90;;;3.80;;
18102;SDS011;9178;51.120;6.192;2023-02-01T08:14:48;19.93;;;4.07;;
18102;SDS011;9178;51.120;6.192;2023-02-01T08:17:15;18.23;;;3.90;;
18102;SDS011;9178;51.120;6.192;2023-02-01T08:19:42;18.30;;;3.40;;
18102;SDS011;9178;51.120;6.192;2023-02-01T08:22:09;13.70;;;2.90;;
18102;SDS011;9178;51.120;6.192;2023-02-01T08:24:37;20.33;;;4.43;;
18102;SDS011;9178;51.120;6.192;2023-02-01T08:27:06;20.47;;;3.33;;
18102;SDS011;9178;51.120;6.192;2023-02-01T08:29:33;17.00;;;3.20;;
18102;SDS011;9178;51.120;6.192;2023-02-01T08:32:01;15.13;;;3.43;;
18102;SDS011;9178;51.120;6.192;2023-02-01T08:34:28;13.60;;;3.37;;
18102;SDS011;9178;51.120;6.192;2023-02-01T08:36:55;11.17;;;3.27;;
18102;SDS011;9178;51.120;6.192;2023-02-01T08:39:25;14.13;;;4.00;;
18102;SDS011;9178;51.120;6.192;2023-02-01T08:41:53;12.33;;;3.33;;
18102;SDS011;9178;51.120;6.192;2023-02-01T08:44:35;13.67;;;3.17;;
18102;SDS011;9178;51.120;6.192;2023-02-01T08:47:02;16.97;;;3.53;;
18102;SDS011;9178;51.120;6.192;2023-02-01T08:49:29;11.97;;;3.90;;
18102;SDS011;9178;51.120;6.192;2023-02-01T08:51:56;13.53;;;3.17;;
18102;SDS011;9178;51.120;6.192;2023-02-01T08:54:23;12.97;;;3.33;;
18102;SDS011;9178;51.120;6.192;2023-02-01T08:56:50;21.70;;;3.30;;
18102;SDS011;9178;51.120;6.192;2023-02-01T08:59:20;15.73;;;3.20;;
18102;SDS011;9178;51.120;6.192;2023-02-01T09:01:47;16.93;;;3.67;;
18102;SDS011;9178;51.120;6.192;2023-02-01T09:04:14;17.03;;;3.27;;
18102;SDS011;9178;51.120;6.192;2023-02-01T09:06:40;12.73;;;3.37;;
18102;SDS011;9178;51.120;6.192;2023-02-01T09:09:07;15.60;;;3.83;;
18102;SDS011;9178;51.120;6.192;2023-02-01T09:11:34;13.00;;;3.33;;
18102;SDS011;9178;51.120;6.192;2023-02-01T09:14:01;15.53;;;3.67;;
18102;SDS011;9178;51.120;6.192;2023-02-01T09:16:30;17.93;;;3.70;;
18102;SDS011;9178;51.120;6.192;2023-02-01T09:18:56;14.60;;;3.67;;
18102;SDS011;9178;51.120;6.192;2023-02-01T09:21:24;14.47;;;3.13;;
18102;SDS011;9178;51.120;6.192;2023-02-01T09:23:50;13.10;;;3.80;;
18102;SDS011;9178;51.120;6.192;2023-02-01T09:26:18;17.03;;;3.50;;
18102;SDS011;9178;51.120;6.192;2023-02-01T09:28:44;14.13;;;3.40;;
18102;SDS011;9178;51.120;6.192;2023-02-01T09:31:11;15.47;;;3.23;;
18102;SDS011;9178;51.120;6.192;2023-02-01T09:33:40;14.80;;;3.50;;
18102;SDS011;9178;51.120;6.192;2023-02-01T09:36:07;12.87;;;3.40;;
18102;SDS011;9178;51.120;6.192;2023-02-01T09:38:35;14.50;;;3.27;;
18102;SDS011;9178;51.120;6.192;2023-02-01T09:41:06;16.63;;;3.20;;
18102;SDS011;9178;51.120;6.192;2023-02-01T09:43:38;16.00;;;3.17;;
18102;SDS011;9178;51.120;6.192;2023-02-01T09:46:15;16.37;;;3.57;;
18102;SDS011;9178;51.120;6.192;2023-02-01T09:48:49;15.27;;;3.20;;
18102;SDS011;9178;51.120;6.192;2023-02-01T09:51:21;15.00;;;3.67;;
18102;SDS011;9178;51.120;6.192;2023-02-01T09:53:55;12.63;;;3.60;;
18102;SDS011;9178;51.120;6.192;2023-02-01T09:56:29;13.83;;;3.43;;
18102;SDS011;9178;51.120;6.192;2023-02-01T09:59:04;16.00;;;3.97;;
18102;SDS011;9178;51.120;6.192;2023-02-01T10:01:40;13.83;;;3.53;;
18102;SDS011;9178;51.120;6.192;2023-02-01T10:04:10;13.47;;;3.40;;
18102;SDS011;9178;51.120;6.192;2023-02-01T10:06:44;14.37;;;3.07;;
18102;SDS011;9178;51.120;6.192;2023-02-01T10:09:25;19.67;;;4.20;;
18102;SDS011;9178;51.120;6.192;2023-02-01T10:15:17;13.13;;;3.20;;
18102;SDS011;9178;51.120;6.192;2023-02-01T10:17:58;13.90;;;3.60;;
18102;SDS011;9178;51.120;6.192;2023-02-01T10:20:50;15.53;;;3.67;;
18102;SDS011;9178;51.120;6.192;2023-02-01T10:23:28;15.77;;;3.20;;
18102;SDS011;9178;51.120;6.192;2023-02-01T10:26:18;11.43;;;3.00;;
18102;SDS011;9178;51.120;6.192;2023-02-01T10:28:48;12.17;;;2.93;;
18102;SDS011;9178;51.120;6.192;2023-02-01T10:31:19;10.70;;;2.70;;
18102;SDS011;9178;51.120;6.192;2023-02-01T10:33:49;13.93;;;3.30;;
18102;SDS011;9178;51.120;6.192;2023-02-01T10:36:21;23.00;;;3.97;;
18102;SDS011;9178;51.120;6.192;2023-02-01T10:38:51;14.07;;;3.27;;
18102;SDS011;9178;51.120;6.192;2023-02-01T10:41:19;13.97;;;2.73;;
18102;SDS011;9178;51.120;6.192;2023-02-01T10:43:48;13.43;;;3.33;;
18102;SDS011;9178;51.120;6.192;2023-02-01T10:46:19;15.67;;;3.03;;
18102;SDS011;9178;51.120;6.192;2023-02-01T10:48:47;12.27;;;2.87;;
18102;SDS011;9178;51.120;6.192;2023-02-01T10:51:19;15.13;;;3.60;;
18102;SDS011;9178;51.120;6.192;2023-02-01T10:53:52;14.47;;;3.07;;
18102;SDS011;9178;51.120;6.192;2023-02-01T10:56:24;10.97;;;2.67;;
18102;SDS011;9178;51.120;6.192;2023-02-01T10:58:59;11.10;;;2.83;;
18102;SDS011;9178;51.120;6.192;2023-02-01T11:01:28;11.43;;;3.10;;
18102;SDS011;9178;51.120;6.192;2023-02-01T11:04:00;14.03;;;2.83;;
18102;SDS011;9178;51.120;6.192;2023-02-01T11:06:30;18.03;;;3.60;;
18102;SDS011;9178;51.120;6.192;2023-02-01T11:09:00;11.60;;;3.07;;
18102;SDS011;9178;51.120;6.192;2023-02-01T11:11:52;12.20;;;3.10;;
18102;SDS011;9178;51.120;6.192;2023-02-01T11:14:26;11.40;;;3.10;;
18102;SDS011;9178;51.120;6.192;2023-02-01T11:16:59;13.97;;;2.70;;
18102;SDS011;9178;51.120;6.192;2023-02-01T11:19:27;12.63;;;2.90;;
18102;SDS011;9178;51.120;6.192;2023-02-01T11:21:57;10.87;;;2.87;;
18102;SDS011;9178;51.120;6.192;2023-02-01T11:24:26;12.77;;;2.80;;
18102;SDS011;9178;51.120;6.192;2023-02-01T11:26:55;12.03;;;3.20;;
18102;SDS011;9178;51.120;6.192;2023-02-01T11:29:23;8.93;;;2.40;;
18102;SDS011;9178;51.120;6.192;2023-02-01T11:31:54;13.10;;;3.13;;
18102;SDS011;9178;51.120;6.192;2023-02-01T11:34:24;14.33;;;3.20;;
18102;SDS011;9178;51.120;6.192;2023-02-01T11:36:54;14.53;;;3.27;;
18102;SDS011;9178;51.120;6.192;2023-02-01T11:39:28;11.90;;;2.77;;
18102;SDS011;9178;51.120;6.192;2023-02-01T11:41:59;12.63;;;3.10;;
18102;SDS011;9178;51.120;6.192;2023-02-01T11:44:33;8.97;;;3.03;;
18102;SDS011;9178;51.120;6.192;2023-02-01T11:47:22;13.77;;;3.10;;
18102;SDS011;9178;51.120;6.192;2023-02-01T11:49:51;13.90;;;3.13;;
18102;SDS011;9178;51.120;6.192;2023-02-01T11:52:32;8.93;;;2.40;;
18102;SDS011;9178;51.120;6.192;2023-02-01T11:55:14;11.53;;;2.83;;
18102;SDS011;9178;51.120;6.192;2023-02-01T11:57:57;11.00;;;3.23;;
18102;SDS011;9178;51.120;6.192;2023-02-01T12:00:43;14.70;;;3.10;;
18102;SDS011;9178;51.120;6.192;2023-02-01T12:03:35;15.13;;;3.43;;
18102;SDS011;9178;51.120;6.192;2023-02-01T12:06:23;7.63;;;2.67;;
18102;SDS011;9178;51.120;6.192;2023-02-01T12:09:07;8.93;;;2.40;;
18102;SDS011;9178;51.120;6.192;2023-02-01T12:11:43;13.73;;;3.07;;
18102;SDS011;9178;51.120;6.192;2023-02-01T12:14:23;18.77;;;3.40;;
18102;SDS011;9178;51.120;6.192;2023-02-01T12:17:06;14.57;;;3.27;;
18102;SDS011;9178;51.120;6.192;2023-02-01T12:20:02;12.93;;;2.80;;
18102;SDS011;9178;51.120;6.192;2023-02-01T12:22:44;14.60;;;3.03;;
18102;SDS011;9178;51.120;6.192;2023-02-01T12:25:23;15.43;;;3.23;;
18102;SDS011;9178;51.120;6.192;2023-02-01T12:28:13;10.77;;;2.37;;
18102;SDS011;9178;51.120;6.192;2023-02-01T12:31:10;12.03;;;2.97;;
18102;SDS011;9178;51.120;6.192;2023-02-01T12:33:58;12.63;;;2.50;;
18102;SDS011;9178;51.120;6.192;2023-02-01T12:36:36;11.03;;;2.57;;
18102;SDS011;9178;51.120;6.192;2023-02-01T12:39:12;13.70;;;2.80;;
18102;SDS011;9178;51.120;6.192;2023-02-01T12:41:50;13.23;;;3.20;;
18102;SDS011;9178;51.120;6.192;2023-02-01T12:44:27;11.60;;;2.30;;
18102;SDS011;9178;51.120;6.192;2023-02-01T12:46:59;6.50;;;1.90;;
18102;SDS011;9178;51.120;6.192;2023-02-01T12:49:34;12.73;;;2.50;;
18102;SDS011;9178;51.120;6.192;2023-02-01T12:52:13;12.93;;;2.37;;
18102;SDS011;9178;51.120;6.192;2023-02-01T12:54:46;10.90;;;2.73;;
18102;SDS011;9178;51.120;6.192;2023-02-01T12:57:19;10.33;;;2.60;;
18102;SDS011;9178;51.120;6.192;2023-02-01T12:59:52;12.47;;;2.77;;
18102;SDS011;9178;51.120;6.192;2023-02-01T13:02:28;12.07;;;2.63;;
18102;SDS011;9178;51.120;6.192;2023-02-01T13:05:02;11.10;;;2.27;;
18102;SDS011;9178;51.120;6.192;2023-02-01T13:07:39;6.03;;;1.80;;
18102;SDS011;9178;51.120;6.192;2023-02-01T13:10:12;7.57;;;1.90;;
18102;SDS011;9178;51.120;6.192;2023-02-01T13:12:47;10.20;;;2.57;;
18102;SDS011;9178;51.120;6.192;2023-02-01T13:15:20;7.87;;;2.20;;
18102;SDS011;9178;51.120;6.192;2023-02-01T13:17:51;9.73;;;2.40;;
18102;SDS011;9178;51.120;6.192;2023-02-01T13:20:22;8.07;;;2.20;;
18102;SDS011;9178;51.120;6.192;2023-02-01T13:22:54;10.10;;;2.03;;
18102;SDS011;9178;51.120;6.192;2023-02-01T13:25:34;13.97;;;2.90;;
18102;SDS011;9178;51.120;6.192;2023-02-01T13:28:06;10.27;;;2.47;;
18102;SDS011;9178;51.120;6.192;2023-02-01T13:30:41;11.37;;;2.47;;
18102;SDS011;9178;51.120;6.192;2023-02-01T13:33:32;9.93;;;2.07;;
18102;SDS011;9178;51.120;6.192;2023-02-01T13:36:15;12.13;;;2.40;;
18102;SDS011;9178;51.120;6.192;2023-02-01T13:39:10;7.77;;;2.23;;
18102;SDS011;9178;51.120;6.192;2023-02-01T13:42:02;19.53;;;2.60;;
18102;SDS011;9178;51.120;6.192;2023-02-01T13:44:33;12.97;;;2.03;;
18102;SDS011;9178;51.120;6.192;2023-02-01T13:47:10;9.43;;;2.17;;
18102;SDS011;9178;51.120;6.192;2023-02-01T13:49:43;8.90;;;2.20;;
18102;SDS011;9178;51.120;6.192;2023-02-01T13:52:21;7.77;;;2.47;;
18102;SDS011;9178;51.120;6.192;2023-02-01T13:55:01;8.40;;;2.10;;
18102;SDS011;9178;51.120;6.192;2023-02-01T13:57:40;5.13;;;2.00;;
18102;SDS011;9178;51.120;6.192;2023-02-01T14:00:24;10.43;;;2.40;;
18102;SDS011;9178;51.120;6.192;2023-02-01T14:09:05;8.40;;;2.17;;
18102;SDS011;9178;51.120;6.192;2023-02-01T14:11:51;8.17;;;2.07;;
18102;SDS011;9178;51.120;6.192;2023-02-01T14:23:25;10.20;;;2.40;;
18102;SDS011;9178;51.120;6.192;2023-02-01T14:26:05;12.30;;;2.33;;
18102;SDS011;9178;51.120;6.192;2023-02-01T14:28:35;6.20;;;2.00;;
18102;SDS011;9178;51.120;6.192;2023-02-01T14:31:29;9.57;;;2.07;;
18102;SDS011;9178;51.120;6.192;2023-02-01T14:34:11;9.07;;;2.77;;
18102;SDS011;9178;51.120;6.192;2023-02-01T14:36:43;10.60;;;2.27;;
18102;SDS011;9178;51.120;6.192;2023-02-01T14:42:05;13.77;;;2.67;;
18102;SDS011;9178;51.120;6.192;2023-02-01T14:44:47;10.03;;;2.37;;
18102;SDS011;9178;51.120;6.192;2023-02-01T14:52:49;11.10;;;2.20;;
18102;SDS011;9178;51.120;6.192;2023-02-01T14:55:24;9.30;;;2.20;;
18102;SDS011;9178;51.120;6.192;2023-02-01T14:57:55;6.40;;;1.93;;
18102;SDS011;9178;51.120;6.192;2023-02-01T15:00:26;11.30;;;2.00;;
18102;SDS011;9178;51.120;6.192;2023-02-01T15:02:56;8.33;;;2.10;;
18102;SDS011;9178;51.120;6.192;2023-02-01T15:05:50;12.57;;;2.53;;
18102;SDS011;9178;51.120;6.192;2023-02-01T15:08:24;11.80;;;2.10;;
18102;SDS011;9178;51.120;6.192;2023-02-01T15:10:55;9.50;;;2.17;;
18102;SDS011;9178;51.120;6.192;2023-02-01T15:13:25;13.07;;;3.07;;
18102;SDS011;9178;51.120;6.192;2023-02-01T15:16:00;9.03;;;2.17;;
18102;SDS011;9178;51.120;6.192;2023-02-01T15:18:32;9.37;;;2.10;;
18102;SDS011;9178;51.120;6.192;2023-02-01T15:21:01;13.20;;;2.70;;
18102;SDS011;9178;51.120;6.192;2023-02-01T15:23:30;10.77;;;2.10;;
18102;SDS011;9178;51.120;6.192;2023-02-01T15:25:58;8.37;;;2.10;;
18102;SDS011;9178;51.120;6.192;2023-02-01T15:28:26;7.10;;;2.20;;
18102;SDS011;9178;51.120;6.192;2023-02-01T15:30:54;13.80;;;2.63;;
18102;SDS011;9178;51.120;6.192;2023-02-01T15:33:23;9.70;;;2.17;;
18102;SDS011;9178;51.120;6.192;2023-02-01T15:35:52;6.93;;;2.27;;
18102;SDS011;9178;51.120;6.192;2023-02-01T15:41:11;13.73;;;2.30;;
18102;SDS011;9178;51.120;6.192;2023-02-01T15:43:42;15.47;;;3.10;;
18102;SDS011;9178;51.120;6.192;2023-02-01T15:46:13;9.27;;;2.43;;
18102;SDS011;9178;51.120;6.192;2023-02-01T15:48:45;13.83;;;2.50;;